createdAt,value
2023-04-09T00:01:58.946Z,48.87
2023-04-09T00:04:43.783Z,48.96
2023-04-09T00:07:28.863Z,49.07
2023-04-09T00:10:13.647Z,48.98
2023-04-09T00:12:58.321Z,48.84
2023-04-09T00:15:43.130Z,48.49
2023-04-09T00:18:27.941Z,48.41
2023-04-09T00:21:12.846Z,48.75
2023-04-09T00:23:57.739Z,48.75
2023-04-09T00:26:42.624Z,49.38
2023-04-09T00:29:27.488Z,49.39
2023-04-09T00:32:12.325Z,49.49
2023-04-09T00:34:57.021Z,49.45
2023-04-09T00:37:42.071Z,49.46
2023-04-09T00:40:26.808Z,49.40
2023-04-09T00:43:11.677Z,49.47
2023-04-09T00:45:56.585Z,49.69
2023-04-09T00:48:41.608Z,50.15
2023-04-09T00:51:26.461Z,50.16
2023-04-09T00:54:11.322Z,50.16
2023-04-09T00:56:56.288Z,50.36
2023-04-09T01:02:29.556Z,50.34
2023-04-09T01:05:14.155Z,50.24
2023-04-09T01:07:59.044Z,50.33
2023-04-09T01:10:43.885Z,50.98
2023-04-09T01:13:28.576Z,51.08
2023-04-09T01:16:13.352Z,51.62
2023-04-09T01:18:58.315Z,51.55
2023-04-09T01:21:43.392Z,52.10
2023-04-09T01:24:27.918Z,52.01
2023-04-09T01:27:13.012Z,52.26
2023-04-09T01:29:57.924Z,52.01
2023-04-09T01:32:42.840Z,51.69
2023-04-09T01:35:27.881Z,51.28
2023-04-09T01:38:12.928Z,51.44
2023-04-09T01:40:57.842Z,51.37
2023-04-09T01:43:42.633Z,51.65
2023-04-09T01:46:27.557Z,51.63
2023-04-09T01:49:12.339Z,51.89
2023-04-09T01:51:57.315Z,52.14
2023-04-09T01:54:42.160Z,52.07
2023-04-09T01:57:27.144Z,52.21
2023-04-09T02:00:12.181Z,51.98
2023-04-09T02:02:57.235Z,52.25
2023-04-09T02:05:42.208Z,52.05
2023-04-09T02:08:27.128Z,52.38
2023-04-09T02:11:12.156Z,52.35
2023-04-09T02:13:56.702Z,51.98
2023-04-09T02:16:41.764Z,52.22
2023-04-09T02:19:26.638Z,52.09
2023-04-09T02:22:11.581Z,51.88
2023-04-09T02:24:56.526Z,51.95
2023-04-09T02:27:41.522Z,51.92
2023-04-09T02:30:26.466Z,51.88
2023-04-09T02:33:11.416Z,52.50
2023-04-09T02:35:55.983Z,52.57
2023-04-09T02:38:40.840Z,52.20
2023-04-09T02:41:25.778Z,52.11
2023-04-09T02:44:10.668Z,51.86
2023-04-09T02:46:55.558Z,51.72
2023-04-09T02:49:40.515Z,51.45
2023-04-09T02:52:25.245Z,51.27
2023-04-09T02:55:10.149Z,51.46
2023-04-09T02:57:55.109Z,51.76
2023-04-09T03:00:40.059Z,51.70
2023-04-09T03:03:24.799Z,51.66
2023-04-09T03:06:09.766Z,51.80
2023-04-09T03:08:54.927Z,51.71
2023-04-09T03:11:39.799Z,51.58
2023-04-09T03:14:24.759Z,51.62
2023-04-09T03:17:09.404Z,51.28
2023-04-09T03:19:54.535Z,51.33
2023-04-09T03:22:39.432Z,51.09
2023-04-09T03:25:24.220Z,51.24
2023-04-09T03:28:08.989Z,51.24
2023-04-09T03:30:53.608Z,51.54
2023-04-09T03:33:38.502Z,51.36
2023-04-09T03:36:23.484Z,51.49
2023-04-09T03:39:08.124Z,50.48
2023-04-09T03:41:53.171Z,50.37
2023-04-09T03:44:38.024Z,50.26
2023-04-09T03:47:22.944Z,50.39
2023-04-09T03:50:07.964Z,50.36
2023-04-09T03:52:52.851Z,50.27
2023-04-09T03:55:37.782Z,50.00
2023-04-09T03:58:22.722Z,50.42
2023-04-09T04:01:07.612Z,50.15
2023-04-09T04:03:52.624Z,50.50
2023-04-09T04:06:37.526Z,50.18
2023-04-09T04:09:22.441Z,50.38
2023-04-09T04:12:07.276Z,50.10
2023-04-09T04:14:52.479Z,50.16
2023-04-09T04:17:37.421Z,49.94
2023-04-09T04:20:22.411Z,49.98
2023-04-09T04:23:07.207Z,50.27
2023-04-09T04:25:52.117Z,50.32
2023-04-09T04:28:37.052Z,50.14
2023-04-09T04:31:22.004Z,50.26
2023-04-09T04:34:07.094Z,50.47
2023-04-09T04:36:51.758Z,50.65
2023-04-09T04:39:36.668Z,50.51
2023-04-09T04:42:21.560Z,50.57
2023-04-09T04:45:06.497Z,50.29
2023-04-09T04:47:51.260Z,50.59
2023-04-09T04:50:36.098Z,50.64
2023-04-09T04:53:20.951Z,50.69
2023-04-09T04:56:05.899Z,50.51
2023-04-09T04:58:50.995Z,50.10
2023-04-09T05:01:36.317Z,50.25
2023-04-09T05:04:21.105Z,49.73
2023-04-09T05:07:05.723Z,49.81
2023-04-09T05:09:50.582Z,49.97
2023-04-09T05:12:35.477Z,49.50
2023-04-09T05:15:20.549Z,49.43
2023-04-09T05:18:05.436Z,49.58
2023-04-09T05:20:50.244Z,49.66
2023-04-09T05:23:34.948Z,49.37
2023-04-09T05:26:19.857Z,50.05
2023-04-09T05:29:04.976Z,50.07
2023-04-09T05:31:49.843Z,49.98
2023-04-09T05:34:34.854Z,49.45
2023-04-09T05:37:19.669Z,49.93
2023-04-09T05:40:04.668Z,49.91
2023-04-09T05:42:49.561Z,49.81
2023-04-09T05:45:34.516Z,49.42
2023-04-09T05:48:19.549Z,49.72
2023-04-09T05:51:04.397Z,49.41
2023-04-09T05:53:49.391Z,49.04
2023-04-09T05:56:34.506Z,49.22
2023-04-09T05:59:19.484Z,49.30
2023-04-09T06:02:04.344Z,49.13
2023-04-09T06:04:49.217Z,49.42
2023-04-09T06:07:34.104Z,49.29
2023-04-09T06:10:19.216Z,48.99
2023-04-09T06:13:03.844Z,48.80
2023-04-09T06:15:48.782Z,48.49
2023-04-09T06:18:33.548Z,47.29
2023-04-09T06:21:18.367Z,46.78
2023-04-09T06:24:03.432Z,46.86
2023-04-09T06:26:48.161Z,46.55
2023-04-09T06:29:33.107Z,47.10
2023-04-09T06:32:17.910Z,46.48
2023-04-09T06:35:03.027Z,45.85
2023-04-09T06:37:47.929Z,45.39
2023-04-09T06:40:32.836Z,45.58
2023-04-09T06:43:17.778Z,44.52
2023-04-09T06:46:02.432Z,42.81
2023-04-09T06:48:49.790Z,43.76
2023-04-09T06:51:34.706Z,43.16
2023-04-09T06:54:19.488Z,45.10
2023-04-09T06:57:04.544Z,45.06
2023-04-09T06:59:49.402Z,44.04
2023-04-09T07:02:34.642Z,43.67
2023-04-09T07:05:19.767Z,42.52
2023-04-09T07:08:04.699Z,40.64
2023-04-09T07:10:49.418Z,39.78
2023-04-09T07:13:34.340Z,40.34
2023-04-09T07:16:19.238Z,41.36
2023-04-09T07:19:04.151Z,40.78
2023-04-09T07:21:49.245Z,39.92
2023-04-09T07:24:34.225Z,42.32
2023-04-09T07:27:19.241Z,42.38
2023-04-09T07:30:04.064Z,41.68
2023-04-09T07:32:49.233Z,43.01
2023-04-09T07:35:33.906Z,42.30
2023-04-09T07:38:18.852Z,42.71
2023-04-09T07:41:03.654Z,44.03
2023-04-09T07:43:48.439Z,42.93
2023-04-09T07:46:33.582Z,44.17
2023-04-09T07:49:18.035Z,44.43
2023-04-09T07:52:02.914Z,44.03
2023-04-09T07:54:47.993Z,44.91
2023-04-09T07:57:32.644Z,44.57
2023-04-09T08:00:17.512Z,45.33
2023-04-09T08:03:02.699Z,45.26
2023-04-09T08:05:47.605Z,45.07
2023-04-09T08:08:32.744Z,45.11
2023-04-09T08:11:17.740Z,43.69
2023-04-09T08:14:02.542Z,42.01
2023-04-09T08:16:47.788Z,40.88
2023-04-09T08:19:32.732Z,41.44
2023-04-09T08:22:17.926Z,40.70
2023-04-09T08:25:03.084Z,41.57
2023-04-09T08:27:47.908Z,41.04
2023-04-09T08:30:32.888Z,40.49
2023-04-09T08:33:17.768Z,42.16
2023-04-09T08:36:03.475Z,40.38
2023-04-09T08:38:48.583Z,40.47
2023-04-09T08:41:33.492Z,40.46
2023-04-09T08:44:18.411Z,39.70
2023-04-09T08:47:03.408Z,39.57
2023-04-09T08:49:48.514Z,39.51
2023-04-09T08:52:33.518Z,39.52
2023-04-09T08:55:18.656Z,40.46
2023-04-09T08:58:03.455Z,40.50
2023-04-09T09:00:48.044Z,40.73
2023-04-09T09:03:32.805Z,40.90
2023-04-09T09:06:17.699Z,41.74
2023-04-09T09:09:02.630Z,42.16
2023-04-09T09:11:47.622Z,41.59
2023-04-09T09:14:32.214Z,39.77
2023-04-09T09:17:17.063Z,40.81
2023-04-09T09:20:01.962Z,40.32
2023-04-09T09:22:46.828Z,39.79
2023-04-09T09:25:31.782Z,38.26
2023-04-09T09:28:16.682Z,40.45
2023-04-09T09:31:01.625Z,39.63
2023-04-09T09:33:46.803Z,38.80
2023-04-09T09:36:31.856Z,38.73
2023-04-09T09:39:16.983Z,37.73
2023-04-09T09:42:02.006Z,38.77
2023-04-09T09:44:46.767Z,38.22
2023-04-09T09:47:31.540Z,38.35
2023-04-09T09:50:16.482Z,37.96
2023-04-09T09:53:01.344Z,37.37
2023-04-09T09:55:46.054Z,37.50
2023-04-09T09:58:30.975Z,37.59
2023-04-09T10:01:16.156Z,37.08
2023-04-09T10:04:00.947Z,37.12
2023-04-09T10:06:45.991Z,36.15
2023-04-09T10:09:30.937Z,33.90
2023-04-09T10:12:15.845Z,34.63
2023-04-09T10:15:00.687Z,34.31
2023-04-09T10:17:45.699Z,33.97
2023-04-09T10:20:30.592Z,34.36
2023-04-09T10:23:15.357Z,34.43
2023-04-09T10:26:00.271Z,34.41
2023-04-09T10:28:45.191Z,35.74
2023-04-09T10:31:30.182Z,35.50
2023-04-09T10:34:14.985Z,34.98
2023-04-09T10:36:59.786Z,35.20
2023-04-09T10:39:44.676Z,35.79
2023-04-09T10:42:29.559Z,36.11
2023-04-09T10:45:14.643Z,36.50
2023-04-09T10:47:59.920Z,33.67
2023-04-09T10:50:44.643Z,34.40
2023-04-09T10:53:29.654Z,34.35
2023-04-09T10:56:14.619Z,33.82
2023-04-09T10:58:59.596Z,33.98
2023-04-09T11:01:44.668Z,35.23
2023-04-09T11:04:29.483Z,34.12
2023-04-09T11:07:14.368Z,34.24
2023-04-09T11:09:59.513Z,34.20
2023-04-09T11:12:44.306Z,32.40
2023-04-09T11:15:29.266Z,34.47
2023-04-09T11:18:14.323Z,35.41
2023-04-09T11:20:59.178Z,32.94
2023-04-09T11:23:44.167Z,33.25
2023-04-09T11:26:29.190Z,34.17
2023-04-09T11:29:14.329Z,33.46
2023-04-09T11:31:58.921Z,34.60
2023-04-09T11:34:43.930Z,33.85
2023-04-09T11:37:28.574Z,34.39
2023-04-09T11:40:13.541Z,34.70
2023-04-09T11:42:58.432Z,32.26
2023-04-09T11:45:43.417Z,34.19
2023-04-09T11:48:28.464Z,33.54
2023-04-09T11:51:13.227Z,32.16
2023-04-09T11:53:58.158Z,33.54
2023-04-09T11:56:42.907Z,35.57
2023-04-09T11:59:27.845Z,34.48
2023-04-09T12:02:12.829Z,34.54
2023-04-09T12:04:58.042Z,34.68
2023-04-09T12:07:48.902Z,35.38
2023-04-09T12:10:40.676Z,35.22
2023-04-09T12:13:25.707Z,35.83
2023-04-09T12:16:10.716Z,35.27
2023-04-09T12:18:55.532Z,35.96
2023-04-09T12:21:40.191Z,35.33
2023-04-09T12:24:25.132Z,35.49
2023-04-09T12:27:10.085Z,35.03
2023-04-09T12:29:55.229Z,36.98
2023-04-09T12:32:40.085Z,35.73
2023-04-09T12:35:25.010Z,36.39
2023-04-09T12:38:09.963Z,36.01
2023-04-09T12:40:54.922Z,35.20
2023-04-09T12:43:39.757Z,36.11
2023-04-09T12:46:24.422Z,36.23
2023-04-09T12:49:09.389Z,35.96
2023-04-09T12:51:54.167Z,36.66
2023-04-09T12:54:39.330Z,37.34
2023-04-09T12:57:24.208Z,35.17
2023-04-09T13:00:09.145Z,35.08
2023-04-09T13:02:54.182Z,35.58
2023-04-09T13:05:38.982Z,35.19
2023-04-09T13:08:23.930Z,35.70
2023-04-09T13:11:08.867Z,35.61
2023-04-09T13:13:54.286Z,36.53
2023-04-09T13:16:39.296Z,36.14
2023-04-09T13:19:24.171Z,35.00
2023-04-09T13:22:09.077Z,36.18
2023-04-09T13:24:53.961Z,35.83
2023-04-09T13:27:38.880Z,34.90
2023-04-09T13:30:23.819Z,35.59
2023-04-09T13:33:08.748Z,34.82
2023-04-09T13:35:56.909Z,34.28
2023-04-09T13:38:45.625Z,35.25
2023-04-09T13:41:31.882Z,34.45
2023-04-09T13:44:16.908Z,33.63
2023-04-09T13:47:01.804Z,33.83
2023-04-09T13:49:46.801Z,36.01
2023-04-09T13:52:31.679Z,34.11
2023-04-09T13:55:16.708Z,33.98
2023-04-09T13:58:01.713Z,33.85
2023-04-09T14:00:46.535Z,33.90
2023-04-09T14:03:31.578Z,34.77
2023-04-09T14:06:16.371Z,34.24
2023-04-09T14:09:01.278Z,33.23
2023-04-09T14:11:46.194Z,33.47
2023-04-09T14:14:31.228Z,33.30
2023-04-09T14:17:16.243Z,34.07
2023-04-09T14:20:01.372Z,31.91
2023-04-09T14:22:46.228Z,32.43
2023-04-09T14:25:31.141Z,33.04
2023-04-09T14:28:16.102Z,32.77
2023-04-09T14:31:00.773Z,31.86
2023-04-09T14:33:45.531Z,33.74
2023-04-09T14:36:30.452Z,32.18
2023-04-09T14:39:15.458Z,32.10
2023-04-09T14:42:00.252Z,32.71
2023-04-09T14:44:45.352Z,32.32
2023-04-09T14:47:29.993Z,32.51
2023-04-09T14:50:15.029Z,31.84
2023-04-09T14:52:59.800Z,30.31
2023-04-09T14:55:44.709Z,30.37
2023-04-09T14:58:29.689Z,30.47
2023-04-09T15:01:14.484Z,31.09
2023-04-09T15:03:59.486Z,31.09
2023-04-09T15:06:44.322Z,31.30
2023-04-09T15:09:28.877Z,30.60
2023-04-09T15:12:13.985Z,29.46
2023-04-09T15:14:58.765Z,27.12
2023-04-09T15:17:43.547Z,29.97
2023-04-09T15:20:28.563Z,29.75
2023-04-09T15:23:13.528Z,28.40
2023-04-09T15:25:58.428Z,29.31
2023-04-09T15:28:43.355Z,27.98
2023-04-09T15:31:28.381Z,29.93
2023-04-09T15:34:13.368Z,30.56
2023-04-09T15:36:58.292Z,30.24
2023-04-09T15:39:43.257Z,28.13
2023-04-09T15:42:28.002Z,28.34
2023-04-09T15:45:12.929Z,28.66
2023-04-09T15:47:57.770Z,31.30
2023-04-09T15:50:42.692Z,31.11
2023-04-09T15:53:27.364Z,32.26
2023-04-09T15:56:12.439Z,32.91
2023-04-09T15:58:57.119Z,32.07
2023-04-09T16:01:42.085Z,33.51
2023-04-09T16:04:27.160Z,33.85
2023-04-09T16:07:11.928Z,30.97
2023-04-09T16:09:56.805Z,32.84
2023-04-09T16:12:41.557Z,31.13
2023-04-09T16:15:26.479Z,30.08
2023-04-09T16:18:11.337Z,30.72
2023-04-09T16:20:56.277Z,30.51
2023-04-09T16:23:41.178Z,31.35
2023-04-09T16:26:26.034Z,31.24
2023-04-09T16:29:11.086Z,31.20
2023-04-09T16:31:56.122Z,30.93
2023-04-09T16:34:41.095Z,30.65
2023-04-09T16:37:25.951Z,30.05
2023-04-09T16:40:11.044Z,31.82
2023-04-09T16:42:55.631Z,32.26
2023-04-09T16:45:40.608Z,32.31
2023-04-09T16:48:25.654Z,30.76
2023-04-09T16:51:10.445Z,30.65
2023-04-09T16:53:55.404Z,30.50
2023-04-09T16:56:40.364Z,32.30
2023-04-09T16:59:25.099Z,32.05
2023-04-09T17:02:09.994Z,32.70
2023-04-09T17:04:54.862Z,32.65
2023-04-09T17:07:39.684Z,33.28
2023-04-09T17:10:24.568Z,33.20
2023-04-09T17:13:09.483Z,31.94
2023-04-09T17:15:54.341Z,32.56
2023-04-09T17:18:39.256Z,33.58
2023-04-09T17:21:24.319Z,34.64
2023-04-09T17:24:09.330Z,33.50
2023-04-09T17:26:54.082Z,33.92
2023-04-09T17:29:38.864Z,32.83
2023-04-09T17:32:23.698Z,33.90
2023-04-09T17:35:08.748Z,34.49
2023-04-09T17:37:53.435Z,35.69
2023-04-09T17:40:38.356Z,35.85
2023-04-09T17:43:23.310Z,36.49
2023-04-09T17:46:08.208Z,36.38
2023-04-09T17:48:53.313Z,37.18
2023-04-09T17:51:38.051Z,37.45
2023-04-09T17:54:22.912Z,37.68
2023-04-09T17:57:07.785Z,37.65
2023-04-09T17:59:52.837Z,37.10
2023-04-09T18:02:38.336Z,35.48
2023-04-09T18:05:23.552Z,34.51
2023-04-09T18:08:08.852Z,33.90
2023-04-09T18:11:01.662Z,33.83
2023-04-09T18:13:56.270Z,33.85
2023-04-09T18:16:41.184Z,33.91
2023-04-09T18:19:26.011Z,34.53
2023-04-09T18:22:10.930Z,34.97
2023-04-09T18:24:55.929Z,35.11
2023-04-09T18:27:40.934Z,35.57
2023-04-09T18:30:25.898Z,35.19
2023-04-09T18:33:10.898Z,36.09
2023-04-09T18:35:55.779Z,36.18
2023-04-09T18:38:40.660Z,36.96
2023-04-09T18:41:25.338Z,37.01
2023-04-09T18:44:10.018Z,36.82
2023-04-09T18:46:55.168Z,36.13
2023-04-09T18:49:39.861Z,36.49
2023-04-09T18:52:24.796Z,36.40
2023-04-09T18:55:09.558Z,35.79
2023-04-09T18:57:54.524Z,35.91
2023-04-09T19:00:39.351Z,36.47
2023-04-09T19:03:24.371Z,37.13
2023-04-09T19:06:09.155Z,37.18
2023-04-09T19:08:54.191Z,36.61
2023-04-09T19:11:39.039Z,36.24
2023-04-09T19:14:23.776Z,36.49
2023-04-09T19:17:08.879Z,36.02
2023-04-09T19:19:53.745Z,36.56
2023-04-09T19:22:38.645Z,36.37
2023-04-09T19:25:23.603Z,35.75
2023-04-09T19:28:08.443Z,34.22
2023-04-09T19:30:53.022Z,35.02
2023-04-09T19:33:37.896Z,35.85
2023-04-09T19:36:22.820Z,36.47
2023-04-09T19:39:07.633Z,36.14
2023-04-09T19:41:52.602Z,35.51
2023-04-09T19:44:37.254Z,35.57
2023-04-09T19:47:22.246Z,36.01
2023-04-09T19:50:07.159Z,36.09
2023-04-09T19:52:51.899Z,36.16
2023-04-09T19:55:36.810Z,36.20
2023-04-09T19:58:21.858Z,36.24
2023-04-09T20:01:06.848Z,35.97
2023-04-09T20:03:51.795Z,35.72
2023-04-09T20:06:36.800Z,35.84
2023-04-09T20:09:21.546Z,36.28
2023-04-09T20:12:06.471Z,35.74
2023-04-09T20:14:51.368Z,37.01
2023-04-09T20:17:36.432Z,37.97
2023-04-09T20:20:21.225Z,37.88
2023-04-09T20:23:06.153Z,38.19
2023-04-09T20:25:51.008Z,38.43
2023-04-09T20:28:36.070Z,37.83
2023-04-09T20:31:20.819Z,38.63
2023-04-09T20:34:05.461Z,38.35
2023-04-09T20:36:50.190Z,38.16
2023-04-09T20:39:34.835Z,37.90
2023-04-09T20:42:19.552Z,38.08
2023-04-09T20:45:04.336Z,37.92
2023-04-09T20:47:49.268Z,38.29
2023-04-09T20:50:34.058Z,38.48
2023-04-09T20:53:18.900Z,37.56
2023-04-09T20:56:03.864Z,37.01
2023-04-09T20:58:48.860Z,36.61
2023-04-09T21:01:34.003Z,36.29
2023-04-09T21:04:18.983Z,37.24
2023-04-09T21:07:03.851Z,38.47
2023-04-09T21:09:48.745Z,38.65
2023-04-09T21:12:33.682Z,38.93
2023-04-09T21:15:18.528Z,38.81
2023-04-09T21:18:03.382Z,39.09
2023-04-09T21:20:48.171Z,38.68
2023-04-09T21:23:33.250Z,38.34
2023-04-09T21:26:18.169Z,38.40
2023-04-09T21:29:02.970Z,37.53
2023-04-09T21:31:47.836Z,37.05
2023-04-09T21:34:32.618Z,36.56
2023-04-09T21:37:17.576Z,35.97
2023-04-09T21:40:02.377Z,35.94
2023-04-09T21:42:47.376Z,35.04
2023-04-09T21:45:32.407Z,35.06
2023-04-09T21:48:17.316Z,36.27
2023-04-09T21:51:02.360Z,36.17
2023-04-09T21:53:47.268Z,36.87
2023-04-09T21:56:31.994Z,36.90
2023-04-09T21:59:16.763Z,36.68
2023-04-09T22:02:01.770Z,36.40
2023-04-09T22:04:46.580Z,36.29
2023-04-09T22:07:31.460Z,35.81
2023-04-09T22:10:16.478Z,35.96
2023-04-09T22:13:01.404Z,36.40
2023-04-09T22:15:46.195Z,35.83
2023-04-09T22:18:30.998Z,36.32
2023-04-09T22:21:15.872Z,36.20
2023-04-09T22:24:00.716Z,36.53
2023-04-09T22:26:45.680Z,36.78
2023-04-09T22:29:30.391Z,37.18
2023-04-09T22:32:15.370Z,36.56
2023-04-09T22:35:00.326Z,36.28
2023-04-09T22:37:45.186Z,36.12
2023-04-09T22:40:30.013Z,37.10
2023-04-09T22:43:14.880Z,37.86
2023-04-09T22:45:59.795Z,37.09
2023-04-09T22:48:45.210Z,37.32
2023-04-09T22:51:30.118Z,37.64
2023-04-09T22:54:15.083Z,37.73
2023-04-09T22:56:59.994Z,37.41
2023-04-09T22:59:44.891Z,37.72
2023-04-09T23:02:29.721Z,37.03
2023-04-09T23:05:14.631Z,36.39
2023-04-09T23:07:59.450Z,37.74
2023-04-09T23:10:43.992Z,38.17
2023-04-09T23:13:28.839Z,38.39
2023-04-09T23:16:13.712Z,38.19
2023-04-09T23:18:58.676Z,38.21
2023-04-09T23:21:43.845Z,38.79
2023-04-09T23:24:28.655Z,38.63
2023-04-09T23:27:13.423Z,38.44
2023-04-09T23:29:58.464Z,37.85
2023-04-09T23:32:43.337Z,37.27
2023-04-09T23:35:28.264Z,36.51
2023-04-09T23:38:13.163Z,35.97
2023-04-09T23:40:58.200Z,36.04
2023-04-09T23:43:42.769Z,36.57
2023-04-09T23:46:27.947Z,36.44
2023-04-09T23:49:12.749Z,36.33
2023-04-09T23:51:57.526Z,35.98
2023-04-09T23:54:42.428Z,34.95
2023-04-09T23:57:27.351Z,35.78
